Time;durP1;ratioP1;P1;durP2;ratioP2;P2;SDS_P1;SDS_P2;PMS_P1;PMS_P2;Temp;Humidity;BMP_temperature;BMP_pressure;BME280_temperature;BME280_humidity;BME280_pressure;Samples;Min_cycle;Max_cycle;Signal;HPM_P1;HPM_P2
2022/04/03 00:01:53;;;;;;;6.63;2.40;;;14.40;42.40;;;;;;5076400;28;20442;-81
2022/04/03 00:04:22;;;;;;;3.90;2.33;;;14.50;42.60;;;;;;5078291;28;20437;-85
2022/04/03 00:06:51;;;;;;;2.07;1.93;;;14.40;42.50;;;;;;5076742;28;20461;-85
2022/04/03 00:09:19;;;;;;;5.10;2.77;;;14.40;42.60;;;;;;5072198;28;20552;-85
2022/04/03 00:11:47;;;;;;;3.27;2.40;;;14.40;42.60;;;;;;5078102;28;20495;-85
2022/04/03 00:14:15;;;;;;;4.43;2.23;;;14.30;42.70;;;;;;5075639;28;20499;-85
2022/04/03 00:16:45;;;;;;;2.67;2.20;;;14.30;42.70;;;;;;5075665;28;20510;-84
2022/04/03 00:19:15;;;;;;;2.90;2.60;;;14.30;42.70;;;;;;5078958;28;20453;-84
2022/04/03 00:21:43;;;;;;;4.00;2.37;;;14.30;42.80;;;;;;5066503;28;20446;-84
2022/04/03 00:24:11;;;;;;;2.63;2.33;;;14.20;42.80;;;;;;5080037;28;20452;-83
2022/04/03 00:26:40;;;;;;;2.97;2.53;;;14.20;42.80;;;;;;5082948;28;20490;-84
2022/04/03 00:29:08;;;;;;;3.23;2.30;;;14.10;42.80;;;;;;5085743;28;20449;-83
2022/04/03 00:31:36;;;;;;;7.07;2.60;;;14.10;42.90;;;;;;5083730;28;20880;-83
2022/04/03 00:34:04;;;;;;;9.50;2.73;;;14.10;42.90;;;;;;5093624;28;20473;-83
2022/04/03 00:36:34;;;;;;;3.20;2.70;;;14.10;42.90;;;;;;5080995;28;20441;-83
2022/04/03 00:39:02;;;;;;;2.60;2.40;;;14.10;42.90;;;;;;5082626;28;20458;-84
2022/04/03 00:41:31;;;;;;;2.60;2.37;;;14.00;42.90;;;;;;5082323;28;20438;-84
2022/04/03 00:43:59;;;;;;;2.60;2.20;;;14.00;43.00;;;;;;5081788;28;20977;-83
2022/04/03 00:46:28;;;;;;;7.40;2.53;;;14.00;43.70;;;;;;5081761;28;20445;-82
2022/04/03 00:48:59;;;;;;;2.70;2.20;;;13.90;43.00;;;;;;5080491;28;20445;-83
2022/04/03 00:51:30;;;;;;;3.73;2.60;;;13.90;43.00;;;;;;5074761;28;20453;-83
2022/04/03 00:54:00;;;;;;;3.13;2.77;;;13.90;43.10;;;;;;5062360;28;20454;-83
2022/04/03 00:56:30;;;;;;;2.87;2.57;;;13.90;43.20;;;;;;5061841;28;20447;-83
2022/04/03 00:58:58;;;;;;;3.40;2.60;;;13.80;43.00;;;;;;5075186;28;20453;-83
2022/04/03 01:01:29;;;;;;;2.97;2.67;;;13.80;43.00;;;;;;5081397;28;20441;-82
2022/04/03 01:04:02;;;;;;;4.60;3.20;;;13.80;43.00;;;;;;5081880;28;20442;-82
2022/04/03 01:06:36;;;;;;;2.57;2.37;;;13.80;43.10;;;;;;5081839;28;20466;-83
2022/04/03 01:09:06;;;;;;;2.60;2.40;;;13.80;43.10;;;;;;5081212;28;20966;-83
2022/04/03 01:11:34;;;;;;;2.60;2.40;;;13.70;43.00;;;;;;5081548;28;20515;-83
2022/04/03 01:14:06;;;;;;;2.63;2.30;;;13.70;43.00;;;;;;5081375;28;20446;-83
2022/04/03 01:16:35;;;;;;;5.03;2.53;;;13.70;43.10;;;;;;5081355;28;20468;-83
2022/04/03 01:19:03;;;;;;;4.10;2.70;;;13.60;43.00;;;;;;5080429;28;20460;-83
2022/04/03 01:21:32;;;;;;;3.57;2.27;;;13.60;43.00;;;;;;5073902;28;20441;-84
2022/04/03 01:24:03;;;;;;;6.53;2.43;;;13.60;43.00;;;;;;5058399;28;20439;-84
2022/04/03 01:26:35;;;;;;;3.97;2.50;;;13.60;43.00;;;;;;5056870;28;20446;-83
2022/04/03 01:29:03;;;;;;;3.20;2.30;;;13.60;43.10;;;;;;5053647;28;20475;-83
2022/04/03 01:31:35;;;;;;;3.17;2.60;;;13.60;43.20;;;;;;5058590;28;20511;-83
2022/04/03 01:34:05;;;;;;;5.40;2.43;;;13.50;43.10;;;;;;5057677;28;20470;-84
2022/04/03 01:36:33;;;;;;;2.50;2.30;;;13.40;43.10;;;;;;5057799;28;20865;-83
2022/04/03 01:39:01;;;;;;;2.63;2.43;;;13.40;43.10;;;;;;5057911;28;20500;-84
2022/04/03 01:41:30;;;;;;;2.67;2.47;;;13.40;43.00;;;;;;5064861;28;20446;-83
2022/04/03 01:44:00;;;;;;;2.67;2.47;;;13.40;43.10;;;;;;5076900;28;20454;-84
2022/04/03 01:46:28;;;;;;;3.43;2.40;;;13.40;43.10;;;;;;5077105;28;20442;-84
2022/04/03 01:48:57;;;;;;;4.43;2.30;;;13.40;43.10;;;;;;5077099;28;20525;-83
2022/04/03 01:51:30;;;;;;;4.97;2.10;;;13.30;43.00;;;;;;5076386;28;20461;-84
2022/04/03 01:54:00;;;;;;;2.33;2.00;;;13.30;43.10;;;;;;5069613;28;20473;-84
2022/04/03 01:56:29;;;;;;;2.73;2.50;;;13.30;43.10;;;;;;5077437;28;20445;-84
2022/04/03 01:58:59;;;;;;;2.23;2.13;;;13.30;43.00;;;;;;5077783;28;20442;-84
2022/04/03 02:01:31;;;;;;;2.23;2.03;;;13.30;43.20;;;;;;5078469;28;20452;-84
2022/04/03 02:04:04;;;;;;;3.63;2.40;;;13.20;43.10;;;;;;5078883;28;20441;-83
2022/04/03 02:06:32;;;;;;;2.60;2.30;;;13.20;43.20;;;;;;5079141;28;20441;-84
2022/04/03 02:09:02;;;;;;;3.47;2.33;;;13.20;43.20;;;;;;5091619;28;20466;-83
2022/04/03 02:11:30;;;;;;;2.70;2.50;;;13.20;43.20;;;;;;5096032;28;20452;-83
2022/04/03 02:14:01;;;;;;;3.17;2.40;;;13.20;43.20;;;;;;5095813;28;20462;-83
2022/04/03 02:16:34;;;;;;;2.23;2.07;;;13.20;43.20;;;;;;5096288;28;20434;-83
2022/04/03 02:19:02;;;;;;;4.00;2.00;;;13.20;43.30;;;;;;5094374;28;20446;-84
2022/04/03 02:21:34;;;;;;;2.23;1.97;;;13.20;43.20;;;;;;5095964;28;20452;-83
2022/04/03 02:24:02;;;;;;;2.67;1.97;;;13.10;43.10;;;;;;5095306;28;20454;-83
2022/04/03 02:26:35;;;;;;;7.03;1.90;;;13.10;43.20;;;;;;5091965;28;20441;-84
2022/04/03 02:29:07;;;;;;;2.83;2.00;;;13.10;43.20;;;;;;5084299;28;20943;-83
2022/04/03 02:31:36;;;;;;;2.77;2.10;;;13.10;43.20;;;;;;5077848;28;20442;-83
2022/04/03 02:34:05;;;;;;;2.20;2.10;;;13.10;43.30;;;;;;5077738;28;20461;-84
2022/04/03 02:36:36;;;;;;;2.20;2.10;;;13.10;43.20;;;;;;5080470;28;20441;-83
2022/04/03 02:39:04;;;;;;;2.20;2.00;;;13.10;43.30;;;;;;5079996;28;20472;-83
2022/04/03 02:41:32;;;;;;;2.30;2.20;;;13.10;43.20;;;;;;5084229;28;20465;-84
2022/04/03 02:44:01;;;;;;;2.13;1.93;;;13.10;43.20;;;;;;5083315;28;20465;-84
2022/04/03 02:46:31;;;;;;;3.17;2.50;;;13.10;43.30;;;;;;5081857;28;20445;-84
2022/04/03 02:49:03;;;;;;;6.93;2.10;;;13.10;43.20;;;;;;5081658;28;20448;-83
2022/04/03 02:51:34;;;;;;;7.87;2.30;;;13.00;43.20;;;;;;5081407;28;20483;-84
2022/04/03 02:54:05;;;;;;;2.87;2.30;;;13.00;43.20;;;;;;5081833;28;21042;-85
2022/04/03 02:56:33;;;;;;;2.40;2.20;;;13.10;43.30;;;;;;5080774;28;20457;-84
2022/04/03 02:59:02;;;;;;;3.00;2.30;;;13.00;43.30;;;;;;5080440;28;20448;-84
2022/04/03 03:01:31;;;;;;;4.70;2.07;;;13.00;43.30;;;;;;5077279;28;20491;-84
2022/04/03 03:04:00;;;;;;;2.80;1.87;;;13.00;43.40;;;;;;5079581;28;20446;-83
2022/04/03 03:06:28;;;;;;;7.43;2.10;;;13.00;43.40;;;;;;5073239;28;20446;-84
2022/04/03 03:08:56;;;;;;;2.40;1.83;;;13.10;43.40;;;;;;5062608;28;20466;-83
2022/04/03 03:11:28;;;;;;;3.13;2.30;;;13.00;43.40;;;;;;5062441;28;20509;-84
2022/04/03 03:13:58;;;;;;;3.30;2.13;;;13.00;43.40;;;;;;5062128;28;20467;-83
2022/04/03 03:16:28;;;;;;;2.30;2.10;;;13.00;43.40;;;;;;5062933;28;20461;-84
2022/04/03 03:18:58;;;;;;;2.90;2.30;;;13.00;43.30;;;;;;5061399;28;20477;-83
2022/04/03 03:21:26;;;;;;;1.93;1.83;;;13.10;43.40;;;;;;5061019;28;20473;-83
2022/04/03 03:23:54;;;;;;;2.30;2.10;;;13.00;43.30;;;;;;5060602;28;20459;-84
2022/04/03 03:26:22;;;;;;;2.10;1.90;;;13.10;43.60;;;;;;5060054;28;20469;-83
2022/04/03 03:28:51;;;;;;;2.60;2.10;;;13.00;43.40;;;;;;5061724;28;20474;-83
2022/04/03 03:31:19;;;;;;;2.00;1.90;;;13.00;43.40;;;;;;5061264;28;20456;-82
2022/04/03 03:33:48;;;;;;;2.13;2.03;;;13.00;43.40;;;;;;5064585;28;20463;-82
2022/04/03 03:36:17;;;;;;;3.13;1.83;;;13.00;43.40;;;;;;5080285;28;20449;-83
2022/04/03 03:38:46;;;;;;;4.80;2.10;;;13.00;43.50;;;;;;5063828;28;20505;-83
2022/04/03 03:41:15;;;;;;;3.10;2.40;;;13.00;43.50;;;;;;5068112;28;20453;-83
2022/04/03 03:43:43;;;;;;;2.17;1.97;;;13.00;43.50;;;;;;5075792;28;20491;-82
2022/04/03 03:46:12;;;;;;;3.20;2.10;;;12.90;43.40;;;;;;5072506;28;20473;-83
2022/04/03 03:48:40;;;;;;;1.73;1.63;;;12.90;43.60;;;;;;5081968;28;20437;-83
2022/04/03 03:51:09;;;;;;;1.87;1.77;;;12.90;43.50;;;;;;5081261;28;20456;-83
2022/04/03 03:53:39;;;;;;;2.30;2.03;;;12.90;44.20;;;;;;5078110;28;20483;-83
2022/04/03 03:56:07;;;;;;;4.93;1.90;;;12.90;43.70;;;;;;5083356;28;20495;-83
2022/04/03 03:58:36;;;;;;;2.03;1.93;;;12.90;43.60;;;;;;5076375;28;20496;-83
2022/04/03 04:01:04;;;;;;;4.00;2.20;;;12.80;43.70;;;;;;5076734;28;20452;-83
2022/04/03 04:03:32;;;;;;;2.00;1.90;;;12.80;43.60;;;;;;5077201;28;20446;-83
2022/04/03 04:06:00;;;;;;;2.30;2.10;;;12.80;43.70;;;;;;5076553;28;20426;-83
2022/04/03 04:08:28;;;;;;;3.23;1.87;;;12.80;43.60;;;;;;5072736;28;20457;-83
2022/04/03 04:10:58;;;;;;;1.80;1.70;;;12.80;43.70;;;;;;5074803;28;20441;-83
2022/04/03 04:13:32;;;;;;;2.20;2.10;;;12.80;43.90;;;;;;5065386;28;20529;-83
2022/04/03 04:16:00;;;;;;;2.00;1.70;;;12.80;43.70;;;;;;5075305;28;20472;-83
2022/04/03 04:18:28;;;;;;;2.70;2.00;;;12.80;43.80;;;;;;5077194;28;20565;-83
2022/04/03 04:20:57;;;;;;;2.20;2.10;;;12.80;43.60;;;;;;5077035;28;21011;-84
2022/04/03 04:23:25;;;;;;;3.83;1.90;;;12.70;43.60;;;;;;5077404;28;20485;-84
2022/04/03 04:25:54;;;;;;;1.87;1.77;;;12.70;43.80;;;;;;5078758;28;20450;-83
2022/04/03 04:28:23;;;;;;;2.70;2.30;;;12.70;43.70;;;;;;5078682;28;20489;-83
2022/04/03 04:30:51;;;;;;;1.90;1.70;;;12.70;43.70;;;;;;5080365;28;20480;-82
2022/04/03 04:33:19;;;;;;;2.20;2.07;;;12.70;43.80;;;;;;5081216;28;20477;-83
2022/04/03 04:35:46;;;;;;;2.23;2.13;;;12.70;43.80;;;;;;5080476;28;20508;-82
2022/04/03 04:38:15;;;;;;;3.00;2.17;;;12.70;43.70;;;;;;5080890;28;20493;-83
2022/04/03 04:40:43;;;;;;;2.37;2.10;;;12.70;43.80;;;;;;5080596;28;20529;-83
2022/04/03 04:43:11;;;;;;;1.80;1.70;;;12.70;43.80;;;;;;5073024;28;20540;-83
2022/04/03 04:45:44;;;;;;;2.53;1.77;;;12.70;43.70;;;;;;5078074;28;20442;-83
2022/04/03 04:48:12;;;;;;;3.80;2.10;;;12.70;43.80;;;;;;5070185;28;20469;-83
2022/04/03 04:50:42;;;;;;;1.90;1.80;;;12.70;43.70;;;;;;5072017;28;20450;-83
2022/04/03 04:53:10;;;;;;;1.87;1.73;;;12.70;43.70;;;;;;5060011;28;20481;-83
2022/04/03 04:55:43;;;;;;;2.03;1.93;;;12.70;43.80;;;;;;5060687;28;20496;-83
2022/04/03 04:58:11;;;;;;;1.80;1.70;;;12.70;43.80;;;;;;5068335;28;20465;-83
2022/04/03 05:00:41;;;;;;;3.03;2.10;;;12.70;43.80;;;;;;5087789;28;20446;-83
2022/04/03 05:03:09;;;;;;;1.97;1.80;;;12.70;43.80;;;;;;5089109;28;20461;-83
2022/04/03 05:05:38;;;;;;;2.03;1.90;;;12.70;43.90;;;;;;5087857;28;20445;-84
2022/04/03 05:08:06;;;;;;;2.10;2.00;;;12.70;43.80;;;;;;5079955;28;20519;-82
2022/04/03 05:10:34;;;;;;;2.00;1.90;;;12.70;43.70;;;;;;5079302;28;20532;-84
2022/04/03 05:13:02;;;;;;;5.53;1.70;;;12.70;43.80;;;;;;5078860;28;20453;-84
2022/04/03 05:15:31;;;;;;;2.03;1.93;;;12.70;43.80;;;;;;5077761;28;20552;-84
2022/04/03 05:18:00;;;;;;;1.90;1.80;;;12.70;43.80;;;;;;5074764;28;20488;-83
2022/04/03 05:20:28;;;;;;;1.70;1.60;;;12.70;43.80;;;;;;5078710;28;20480;-83
2022/04/03 05:22:57;;;;;;;2.40;2.20;;;12.70;43.80;;;;;;5079404;28;20437;-83
2022/04/03 05:25:25;;;;;;;1.67;1.57;;;12.60;43.80;;;;;;5080012;28;20485;-83
2022/04/03 05:27:53;;;;;;;4.60;2.67;;;12.60;43.80;;;;;;5080511;28;20508;-83
2022/04/03 05:30:21;;;;;;;2.27;1.70;;;12.60;43.90;;;;;;5078581;28;20470;-86
2022/04/03 05:32:50;;;;;;;1.50;1.40;;;12.60;43.90;;;;;;5077975;28;20533;-84
2022/04/03 05:35:19;;;;;;;1.87;1.77;;;12.60;43.90;;;;;;5079862;28;20492;-83
2022/04/03 05:37:47;;;;;;;1.90;1.80;;;12.60;44.00;;;;;;5085990;28;20493;-84
2022/04/03 05:40:15;;;;;;;2.27;2.07;;;12.60;44.00;;;;;;5081519;28;20552;-83
2022/04/03 05:42:44;;;;;;;2.20;2.10;;;12.60;44.00;;;;;;5079344;28;20446;-84
2022/04/03 05:45:12;;;;;;;1.93;1.60;;;12.50;43.90;;;;;;5078753;28;20442;-84
2022/04/03 05:47:40;;;;;;;2.00;1.90;;;12.60;44.00;;;;;;5077750;28;21052;-84
2022/04/03 05:50:11;;;;;;;2.90;1.80;;;12.60;43.90;;;;;;5078514;28;20445;-84
2022/04/03 05:52:42;;;;;;;1.60;1.50;;;12.60;43.80;;;;;;5078624;28;20476;-83
2022/04/03 05:55:10;;;;;;;3.67;1.70;;;12.60;43.90;;;;;;5078126;28;20474;-84
2022/04/03 05:57:39;;;;;;;2.33;2.13;;;12.60;43.90;;;;;;5078472;28;20511;-84
2022/04/03 06:00:08;;;;;;;1.97;1.87;;;12.60;44.00;;;;;;5080530;28;20471;-83
2022/04/03 06:02:51;;;;;;;2.37;2.17;;;12.60;43.80;;;;;;5083718;28;20437;-84
2022/04/03 06:05:20;;;;;;;1.97;1.87;;;12.60;43.90;;;;;;5084707;28;20457;-84
2022/04/03 06:07:49;;;;;;;1.77;1.67;;;12.70;43.80;;;;;;5091236;28;20437;-83
2022/04/03 06:10:18;;;;;;;3.43;2.10;;;12.70;43.80;;;;;;5095481;28;20461;-83
2022/04/03 06:12:58;;;;;;;3.00;2.37;;;12.70;43.90;;;;;;5097251;28;20429;-83
2022/04/03 06:15:26;;;;;;;2.20;2.00;;;12.70;43.90;;;;;;5099937;28;20461;-83
2022/04/03 06:17:54;;;;;;;1.70;1.60;;;12.70;43.90;;;;;;5098759;28;20461;-84
2022/04/03 06:20:23;;;;;;;2.03;1.80;;;12.70;43.80;;;;;;5100604;28;20426;-82
2022/04/03 06:22:52;;;;;;;1.83;1.73;;;12.80;44.00;;;;;;5100352;28;20452;-84
2022/04/03 06:25:21;;;;;;;1.90;1.80;;;12.80;44.00;;;;;;5096400;28;20465;-84
2022/04/03 06:27:49;;;;;;;2.30;2.10;;;12.80;44.00;;;;;;5094039;28;20493;-84
2022/04/03 06:30:17;;;;;;;1.80;1.70;;;12.80;43.90;;;;;;5096107;28;20425;-83
2022/04/03 06:32:46;;;;;;;1.60;1.50;;;12.90;43.90;;;;;;5094889;28;20434;-84
2022/04/03 06:35:14;;;;;;;1.93;1.77;;;12.90;43.90;;;;;;5074237;28;20486;-84
2022/04/03 06:37:43;;;;;;;2.00;1.80;;;13.00;43.80;;;;;;5074405;28;20474;-83
2022/04/03 06:40:13;;;;;;;2.10;1.70;;;13.10;43.70;;;;;;5074418;28;20496;-84
2022/04/03 06:42:42;;;;;;;2.10;1.90;;;13.10;43.60;;;;;;5074815;28;20504;-83
2022/04/03 06:45:12;;;;;;;2.00;1.90;;;13.20;43.60;;;;;;5080027;28;20446;-83
2022/04/03 06:47:40;;;;;;;1.60;1.50;;;13.20;43.30;;;;;;5079699;28;20442;-82
2022/04/03 06:50:09;;;;;;;1.60;1.50;;;13.20;43.50;;;;;;5078254;28;20434;-83
2022/04/03 06:52:39;;;;;;;1.70;1.60;;;13.10;43.40;;;;;;5076591;28;20491;-83
2022/04/03 06:55:08;;;;;;;1.60;1.50;;;13.10;43.50;;;;;;5074490;28;20466;-83
2022/04/03 06:57:38;;;;;;;1.73;1.60;;;13.10;43.60;;;;;;5073454;28;20519;-83
2022/04/03 07:00:08;;;;;;;1.97;1.70;;;13.20;43.70;;;;;;5082857;28;20449;-82
2022/04/03 07:02:36;;;;;;;2.03;1.93;;;13.20;43.70;;;;;;5082945;28;20450;-84
2022/04/03 07:05:05;;;;;;;3.83;1.77;;;13.20;43.60;;;;;;5082649;28;20475;-84
2022/04/03 07:07:34;;;;;;;1.63;1.53;;;13.20;43.80;;;;;;5065638;28;20466;-84
2022/04/03 07:10:03;;;;;;;2.10;1.90;;;13.30;43.70;;;;;;5064311;28;20477;-84
2022/04/03 07:12:31;;;;;;;1.80;1.70;;;13.40;43.70;;;;;;5070973;28;20442;-83
2022/04/03 07:15:00;;;;;;;2.00;1.90;;;13.40;43.60;;;;;;5071511;28;20477;-83
2022/04/03 07:17:29;;;;;;;2.00;1.80;;;13.40;43.70;;;;;;5066375;28;20455;-84
2022/04/03 07:20:03;;;;;;;1.67;1.57;;;13.40;43.60;;;;;;5062827;28;20442;-84
2022/04/03 07:22:31;;;;;;;1.93;1.83;;;13.50;43.70;;;;;;5061302;28;20453;-84
2022/04/03 07:24:59;;;;;;;1.90;1.80;;;13.50;43.50;;;;;;5061710;28;20470;-84
2022/04/03 07:27:27;;;;;;;1.80;1.70;;;13.60;43.40;;;;;;5062936;28;20474;-84
2022/04/03 07:29:55;;;;;;;1.70;1.60;;;13.60;43.50;;;;;;5064282;28;20478;-84
2022/04/03 07:32:25;;;;;;;1.47;1.37;;;13.60;43.30;;;;;;5065559;28;20450;-84
2022/04/03 07:34:53;;;;;;;2.47;1.53;;;13.70;43.30;;;;;;5084079;28;20448;-84
2022/04/03 07:37:23;;;;;;;1.60;1.50;;;13.70;43.30;;;;;;5084247;28;20531;-84
2022/04/03 07:39:52;;;;;;;2.30;1.40;;;13.80;43.40;;;;;;5080316;28;20465;-84
2022/04/03 07:42:20;;;;;;;2.03;1.90;;;13.90;43.20;;;;;;5070057;28;20450;-84
2022/04/03 07:44:48;;;;;;;2.13;1.67;;;14.00;43.10;;;;;;5062935;28;20461;-84
2022/04/03 07:47:17;;;;;;;1.60;1.50;;;14.20;42.90;;;;;;5062630;28;20473;-84
2022/04/03 07:49:46;;;;;;;1.50;1.40;;;14.30;42.80;;;;;;5061212;28;20451;-84
2022/04/03 07:52:15;;;;;;;1.97;1.77;;;14.40;42.70;;;;;;5060481;28;20512;-84
2022/04/03 07:54:44;;;;;;;1.67;1.57;;;14.50;42.40;;;;;;5059871;28;20475;-84
2022/04/03 07:57:12;;;;;;;1.80;1.70;;;14.80;42.00;;;;;;5060242;28;20478;-84
2022/04/03 07:59:42;;;;;;;1.57;1.47;;;15.00;41.80;;;;;;5078959;28;20442;-84
2022/04/03 08:02:11;;;;;;;1.70;1.60;;;15.20;41.80;;;;;;5081511;28;20452;-84
2022/04/03 08:04:39;;;;;;;1.73;1.63;;;15.20;42.40;;;;;;5083366;28;20446;-84
2022/04/03 08:07:09;;;;;;;1.80;1.70;;;15.20;42.30;;;;;;5081780;28;20457;-84
2022/04/03 08:09:37;;;;;;;2.70;1.60;;;14.90;42.90;;;;;;5078647;28;20457;-84
2022/04/03 08:12:07;;;;;;;1.80;1.70;;;15.00;43.00;;;;;;5082602;28;20468;-85
2022/04/03 08:17:54;;;;;;;2.13;1.87;;;14.90;43.80;;;;;;5059673;28;20498;-85
2022/04/03 08:20:25;;;;;;;1.57;1.47;;;14.80;44.40;;;;;;5063239;28;20471;-84
2022/04/03 08:22:58;;;;;;;1.83;1.73;;;14.80;44.70;;;;;;5062689;28;20496;-84
2022/04/03 08:25:33;;;;;;;1.87;1.77;;;14.90;44.90;;;;;;5063079;28;20625;-84
2022/04/03 08:28:04;;;;;;;1.50;1.40;;;15.00;44.90;;;;;;5062726;28;20554;-84
2022/04/03 08:30:36;;;;;;;1.63;1.53;;;15.10;45.20;;;;;;5062940;28;20454;-84
2022/04/03 08:33:10;;;;;;;1.53;1.40;;;15.20;45.30;;;;;;5062251;28;20454;-84
2022/04/03 08:35:43;;;;;;;1.57;1.47;;;15.50;45.00;;;;;;5061428;28;20506;-84
2022/04/03 08:38:18;;;;;;;1.60;1.50;;;15.60;44.80;;;;;;5063959;28;20479;-83
2022/04/03 08:40:47;;;;;;;1.67;1.57;;;15.70;44.80;;;;;;5069021;28;20470;-84
2022/04/03 08:43:17;;;;;;;2.03;1.57;;;15.70;45.00;;;;;;5083382;28;20446;-84
2022/04/03 08:45:50;;;;;;;1.67;1.57;;;15.90;44.90;;;;;;5081174;28;20454;-85
2022/04/03 08:48:31;;;;;;;1.17;1.17;;;16.30;44.70;;;;;;5076660;28;20533;-84
2022/04/03 08:51:05;;;;;;;2.13;1.63;;;16.60;44.20;;;;;;5072858;28;20457;-82
2022/04/03 08:54:09;;;;;;;1.10;1.10;;;17.00;43.80;;;;;;5062109;28;20443;-83
2022/04/03 08:56:48;;;;;;;1.50;1.40;;;17.30;43.50;;;;;;5061910;28;20485;-83
2022/04/03 09:00:01;;;;;;;1.57;1.47;;;17.60;43.20;;;;;;5077991;28;20525;-84
2022/04/03 09:03:47;;;;;;;1.50;1.40;;;17.80;43.20;;;;;;5081301;28;20433;-84
2022/04/03 09:12:51;;;;;;;1.30;1.30;;;18.40;42.80;;;;;;5077440;28;20968;-84
2022/04/03 09:15:24;;;;;;;1.43;1.33;;;18.60;42.90;;;;;;5078454;28;20528;-84
2022/04/03 09:18:02;;;;;;;1.30;1.20;;;18.70;42.60;;;;;;5077301;28;20487;-85
2022/04/03 09:20:37;;;;;;;1.80;1.57;;;18.80;42.40;;;;;;5077970;28;20441;-84
2022/04/03 09:23:06;;;;;;;1.70;1.30;;;18.80;42.30;;;;;;5078253;28;20782;-84
2022/04/03 09:25:43;;;;;;;1.97;1.40;;;18.70;42.20;;;;;;5077865;28;20477;-84
2022/04/03 09:28:15;;;;;;;2.83;1.47;;;18.70;42.30;;;;;;5078457;28;20464;-84
2022/04/03 09:30:47;;;;;;;1.40;1.30;;;18.50;42.40;;;;;;5078944;28;20580;-84
2022/04/03 09:33:22;;;;;;;2.67;1.80;;;18.30;42.80;;;;;;5078591;28;20452;-83
2022/04/03 09:35:58;;;;;;;1.40;1.30;;;18.40;42.50;;;;;;5079309;28;20453;-83
2022/04/03 09:38:31;;;;;;;1.50;1.30;;;18.30;42.90;;;;;;5078687;28;20560;-84
2022/04/03 09:41:21;;;;;;;1.20;1.20;;;18.50;43.10;;;;;;5080164;28;20447;-84
2022/04/03 09:43:56;;;;;;;2.70;1.40;;;18.70;43.00;;;;;;5078424;28;20449;-84
2022/04/03 09:46:29;;;;;;;1.50;1.40;;;18.70;42.80;;;;;;5077552;28;20445;-85
2022/04/03 09:51:53;;;;;;;1.67;1.57;;;19.10;42.80;;;;;;5077369;28;20449;-84
2022/04/03 09:54:27;;;;;;;1.20;1.10;;;19.20;43.00;;;;;;5077543;28;20487;-84
2022/04/03 09:57:23;;;;;;;1.20;1.20;;;19.50;42.30;;;;;;5090112;28;20473;-84
2022/04/03 10:00:01;;;;;;;1.30;1.30;;;19.60;42.00;;;;;;5073826;28;20444;-82
2022/04/03 10:02:34;;;;;;;2.17;1.50;;;19.70;41.80;;;;;;5069132;28;20446;-84
2022/04/03 10:05:11;;;;;;;1.37;1.27;;;19.70;41.80;;;;;;5076290;28;20472;-84
2022/04/03 10:07:46;;;;;;;1.30;1.30;;;19.60;41.70;;;;;;5075538;28;20535;-85
2022/04/03 10:10:15;;;;;;;2.60;1.40;;;19.90;42.00;;;;;;5075971;28;20441;-84
2022/04/03 10:12:54;;;;;;;1.27;1.17;;;20.20;42.00;;;;;;5077776;28;20437;-83
2022/04/03 10:15:34;;;;;;;1.40;1.20;;;20.50;41.80;;;;;;5077072;28;20962;-84
2022/04/03 10:18:05;;;;;;;1.50;1.40;;;20.90;41.30;;;;;;5079739;28;20469;-83
2022/04/03 10:20:37;;;;;;;1.63;1.53;;;21.00;41.00;;;;;;5081089;28;20450;-84
2022/04/03 10:23:12;;;;;;;1.37;1.27;;;21.40;40.90;;;;;;5078895;28;20951;-84
2022/04/03 10:25:44;;;;;;;1.17;1.17;;;21.40;40.90;;;;;;5078740;28;20476;-85
2022/04/03 10:28:14;;;;;;;1.40;1.30;;;21.50;40.70;;;;;;5078936;28;20465;-84
2022/04/03 10:30:47;;;;;;;1.47;1.37;;;21.70;40.70;;;;;;5077512;28;20441;-84
2022/04/03 10:33:19;;;;;;;1.53;1.43;;;21.70;40.40;;;;;;5080489;28;20445;-84
2022/04/03 10:35:50;;;;;;;1.40;1.30;;;21.60;40.50;;;;;;5080174;28;20453;-84
2022/04/03 10:38:18;;;;;;;2.70;1.50;;;21.50;40.30;;;;;;5080101;28;20535;-83
2022/04/03 10:40:57;;;;;;;1.43;1.30;;;21.40;40.60;;;;;;5078863;28;20444;-84
2022/04/03 10:43:29;;;;;;;1.63;1.30;;;21.30;40.50;;;;;;5079714;28;20448;-84
2022/04/03 10:45:58;;;;;;;3.37;1.40;;;21.40;40.40;;;;;;5089674;28;20441;-85
2022/04/03 10:48:31;;;;;;;1.07;1.07;;;21.50;40.40;;;;;;5084816;28;20454;-84
2022/04/03 10:51:05;;;;;;;1.83;1.20;;;21.50;40.00;;;;;;5086556;28;20437;-84
2022/04/03 10:53:39;;;;;;;1.97;1.23;;;21.50;40.00;;;;;;5079762;28;20847;-84
2022/04/03 10:56:11;;;;;;;1.37;1.20;;;21.40;40.10;;;;;;5077750;28;20441;-84
2022/04/03 10:58:46;;;;;;;1.20;1.13;;;21.70;40.30;;;;;;5080881;28;20468;-84
2022/04/03 11:01:25;;;;;;;1.50;1.40;;;22.00;40.10;;;;;;5084054;28;20464;-84
2022/04/03 11:03:55;;;;;;;1.57;1.47;;;22.00;39.90;;;;;;5080581;28;20438;-83
2022/04/03 11:06:36;;;;;;;1.20;1.20;;;21.80;39.90;;;;;;5081119;28;20441;-84
2022/04/03 11:09:24;;;;;;;1.20;1.00;;;22.30;39.80;;;;;;5081674;28;20504;-83
2022/04/03 11:11:58;;;;;;;1.30;1.30;;;22.20;39.70;;;;;;5081184;28;20442;-83
2022/04/03 11:14:52;;;;;;;1.23;1.13;;;22.60;39.20;;;;;;5081014;28;20530;-84
2022/04/03 11:21:12;;;;;;;1.57;1.47;;;22.40;39.30;;;;;;5074902;28;20438;-83
2022/04/03 11:23:50;;;;;;;1.10;1.00;;;22.40;39.20;;;;;;5081587;28;20442;-83
2022/04/03 11:26:23;;;;;;;2.77;1.30;;;22.60;38.80;;;;;;5081118;28;20923;-84
2022/04/03 11:29:01;;;;;;;1.70;1.23;;;22.50;38.80;;;;;;5080692;28;20438;-84
2022/04/03 11:31:34;;;;;;;1.23;1.13;;;22.60;38.50;;;;;;5079338;28;20446;-84
2022/04/03 11:34:03;;;;;;;2.43;1.40;;;22.70;38.80;;;;;;5080151;28;20516;-84
2022/04/03 11:36:38;;;;;;;2.40;1.80;;;25.50;37.00;;;;;;5081354;28;20437;-84
2022/04/03 11:39:07;;;;;;;1.73;1.60;;;27.70;33.30;;;;;;5078132;28;20440;-84
2022/04/03 11:41:53;;;;;;;1.90;1.80;;;29.50;30.70;;;;;;5079157;28;20441;-84
2022/04/03 11:44:29;;;;;;;2.00;1.90;;;31.00;29.10;;;;;;5078218;28;20532;-84
2022/04/03 11:47:00;;;;;;;2.80;2.70;;;32.00;27.20;;;;;;5079752;28;20523;-84
2022/04/03 11:49:32;;;;;;;2.90;2.80;;;31.30;26.70;;;;;;5083436;28;20522;-85
2022/04/03 11:52:13;;;;;;;3.63;3.33;;;29.50;28.40;;;;;;5090898;28;20492;-84
2022/04/03 11:55:02;;;;;;;4.20;4.00;;;27.40;30.80;;;;;;5089113;28;20416;-84
2022/04/03 11:57:35;;;;;;;5.03;4.77;;;26.20;32.60;;;;;;5081359;28;20497;-84
2022/04/03 12:00:04;;;;;;;6.20;5.80;;;25.40;33.60;;;;;;5079937;28;20420;-84
2022/04/03 12:02:34;;;;;;;6.40;6.00;;;24.90;34.20;;;;;;5078562;28;20442;-84
2022/04/03 12:05:02;;;;;;;8.33;7.73;;;24.50;34.80;;;;;;5077829;28;20499;-84
2022/04/03 12:07:39;;;;;;;9.53;8.87;;;24.10;35.10;;;;;;5079925;28;20472;-84
2022/04/03 12:10:11;;;;;;;9.83;9.10;;;23.90;35.30;;;;;;5079781;28;20490;-84
2022/04/03 12:12:42;;;;;;;10.50;9.70;;;23.70;35.50;;;;;;5079742;28;20441;-84
2022/04/03 12:15:14;;;;;;;11.13;9.53;;;23.60;35.50;;;;;;5077075;28;20445;-85
2022/04/03 12:17:46;;;;;;;8.10;7.50;;;23.50;35.70;;;;;;5080192;28;20473;-85
2022/04/03 12:20:15;;;;;;;8.50;7.83;;;23.50;35.70;;;;;;5075457;28;20412;-85
2022/04/03 12:22:43;;;;;;;7.43;7.00;;;23.40;35.60;;;;;;5076996;28;20420;-83
2022/04/03 12:25:12;;;;;;;7.33;6.83;;;23.30;35.70;;;;;;5073671;28;20434;-85
2022/04/03 12:27:44;;;;;;;6.70;6.30;;;23.00;35.70;;;;;;5070801;28;20459;-86
2022/04/03 12:30:15;;;;;;;6.07;5.63;;;22.80;35.90;;;;;;5073053;28;20938;-83
2022/04/03 12:32:45;;;;;;;6.10;5.70;;;22.80;36.60;;;;;;5078990;28;20477;-85
2022/04/03 12:35:15;;;;;;;7.03;6.53;;;22.60;36.10;;;;;;5082079;28;20455;-84
2022/04/03 12:37:43;;;;;;;5.90;5.50;;;23.90;38.10;;;;;;5078143;28;20457;-85
2022/04/03 12:40:12;;;;;;;5.20;4.90;;;26.50;33.90;;;;;;5078257;28;20446;-85
2022/04/03 12:42:41;;;;;;;4.10;4.00;;;28.60;30.60;;;;;;5079771;28;20437;-86
2022/04/03 12:45:15;;;;;;;3.90;3.80;;;30.20;28.60;;;;;;5071920;28;20446;-85
2022/04/03 12:47:48;;;;;;;4.50;4.17;;;29.80;27.30;;;;;;5076140;28;20468;-84
2022/04/03 12:50:24;;;;;;;4.97;4.57;;;29.40;29.10;;;;;;5061651;28;20438;-85
2022/04/03 12:52:57;;;;;;;4.53;4.33;;;31.20;28.40;;;;;;5070106;28;20527;-85
2022/04/03 12:55:32;;;;;;;6.30;5.90;;;31.00;26.00;;;;;;5067208;28;20441;-85
2022/04/03 12:58:30;;;;;;;6.40;6.00;;;29.40;27.50;;;;;;5066546;28;20512;-85
2022/04/03 13:01:07;;;;;;;8.33;7.73;;;28.10;28.90;;;;;;5081698;28;20446;-86
2022/04/03 13:03:38;;;;;;;10.50;7.57;;;27.00;30.10;;;;;;5081733;28;20453;-84
2022/04/03 13:06:08;;;;;;;9.90;9.20;;;26.20;31.40;;;;;;5081519;28;20495;-84
2022/04/03 13:08:47;;;;;;;11.03;10.07;;;25.60;32.30;;;;;;5081993;28;20529;-84
2022/04/03 13:11:26;;;;;;;10.60;9.60;;;25.00;33.20;;;;;;5082408;28;20412;-82
2022/04/03 13:13:54;;;;;;;10.80;10.00;;;24.60;34.00;;;;;;5082483;28;20446;-82
2022/04/03 13:16:23;;;;;;;12.73;11.63;;;24.30;34.50;;;;;;5082183;28;20424;-84
2022/04/03 13:18:56;;;;;;;11.73;10.73;;;25.20;36.30;;;;;;5082191;28;20416;-84
2022/04/03 13:21:24;;;;;;;12.47;11.43;;;25.70;32.80;;;;;;5081912;28;20473;-84
2022/04/03 13:23:52;;;;;;;11.03;10.03;;;26.20;33.60;;;;;;5082051;28;20471;-84